Huvudsida
METAR-TAF:

METAR-TAF

Flygplatser :

Nice Côte d'Azur flygplats

Nice, Frankrike

latitud: 43-39N, longitud: 007-12E, höjd: 4 m

Aktuellt väderrapport

Denna rapport gjordes för 42 minuter sedan, klockan 03:30 UTC
Vind 11 kt från nord/nordväst
Temperatur 9°C
Fuktighet 71%
Tryck 1018 hPa
Sikt 10 km eller mer
Inga moln under 1 500 m eller inga cumulonimbus

METAR: LFMN 070330Z 33011KT CAVOK 09/04 Q1018 NOSIG

Tid: 05:12 (04:12 UTC)

Väderprognos

Denna rapport gjordes för 2 timmar och 12 minuter sedan, klockan 02:00 UTC
Prognos gäller från 07 kl. 03 UTC till 08 kl. 09 UTC
Vind 6 kt från nordväst
Sikt 10 km eller mer
Spridda moln på en höjd av 3300 ft
Temporärt
från 07 kl. 11 UTC till 07 kl. 16 UTC
Vind 5 kt från nord
Temporärt
från 07 kl. 09 UTC till 07 kl. 21 UTC
Brutna moln på en höjd av 2000 ft

TAF: LFMN 070200Z 0703/0809 32006KT 9999 SCT033 TEMPO 0711/0716 01005KT TEMPO 0709/0721 BKN020

Aktuella väderrapporter och prognoser från 4000 flygplatser (METAR- och TAF-rapporter).

De tillgängliga stationerna syns som gula och röda prickar på kartan.

För musen över prickarna för att se namnen på stationerna.

Klicka sedan för att få väderrapporter och prognoser.

För att ändra kartan: Klicka på de gröna knapparna med ett svart kors på för att zooma in; den gröna knappen med ett streck på för att zooma ut; eller på de gröna pilarna för angränsande kartor.


METAR-TAF: